Latest Weather Observations for Barrow Island

IDW60801

Issued at 11:05 pm WST Friday 25 July 2014 (issued every 30 minutes, with the page automatically refreshed every 10 minutes)

About weather observations | Map of weather stations | Latest weather observations for WA | Other Formats
Station Details ID: 005094 Name: BARROW ISLAND AIRPORT Lat: -20.88 Lon: 115.41 Height: 6.4 m
Data from the previous 72 hours. | See also: Recent months at Barrow Island
Date/Time
WST
Temp
°C
App
Temp
°C
Dew
Point
Rel
Hum
%
Delta-T
°C
Wind Press
QNH
hPa
Press
MSL
hPa
Rain
since 9 am
mm
Dir
 
Spd
km/h
Gust
km/h
Spd
kts
Gust
kts
25/11:00pm 13.7 11.1 7.7 67 2.9 N 11 11 6 6 1020.5 - 0.0
25/10:30pm 13.4 10.3 7.4 67 2.9 N 13 13 7 7 1020.5 - 0.0
25/10:00pm 13.8 10.7 7.3 65 3.2 NNE 13 15 7 8 1020.7 - 0.0
25/09:30pm 13.8 10.4 7.6 66 3.0 N 15 17 8 9 1020.6 - 0.0
25/09:00pm 14.3 10.8 7.4 63 3.4 N 15 17 8 9 1020.5 1020.5 0.0
25/08:30pm 14.5 11.0 7.1 61 3.6 N 15 15 8 8 1020.4 - 0.0
25/08:00pm 15.0 11.5 7.1 59 3.9 N 15 17 8 9 1020.1 - 0.0
25/07:30pm 15.9 12.5 7.7 58 4.1 N 15 17 8 9 1019.8 - 0.0
25/07:00pm 16.9 13.5 9.3 61 3.9 NNE 17 19 9 10 1019.4 - 0.0
25/06:30pm 17.6 14.0 10.0 61 4.0 NNE 19 22 10 12 1019.3 - 0.0
25/06:00pm 18.4 14.2 9.7 57 4.6 NNE 22 28 12 15 1019.0 1019.0 0.0
25/05:30pm 19.5 14.3 8.8 50 5.6 NNE 26 30 14 16 1019.1 - 0.0
25/05:00pm 20.1 15.3 8.8 48 5.9 NE 24 30 13 16 1019.1 - 0.0
25/04:30pm 20.4 14.6 8.1 45 6.4 NE 28 32 15 17 1019.2 - 0.0
25/04:00pm 20.6 14.4 7.9 44 6.6 NE 30 33 16 18 1019.3 - 0.0
25/03:30pm 20.9 15.1 9.5 48 6.1 NNE 30 37 16 20 1019.5 - 0.0
25/03:00pm 20.8 14.7 6.7 40 7.1 NE 28 35 15 19 1019.6 1019.6 0.0
25/02:30pm 20.2 13.0 5.1 37 7.4 NE 32 35 17 19 1019.8 - 0.0
25/02:00pm 20.4 13.7 8.1 45 6.4 NE 33 39 18 21 1019.7 - 0.0
25/01:30pm 20.3 13.2 8.0 45 6.4 ENE 35 43 19 23 1020.0 - 0.0
25/01:00pm 20.3 13.2 6.6 41 6.9 ENE 33 39 18 21 1020.3 - 0.0
25/12:30pm 20.4 13.6 7.7 44 6.5 ENE 33 39 18 21 1020.9 - 0.0
25/12:00pm 20.1 13.1 8.4 47 6.1 ENE 35 41 19 22 1021.4 1021.4 0.0
25/11:30am 20.2 12.9 8.8 48 6.0 ENE 37 44 20 24 1021.5 - 0.0
25/11:00am 20.0 12.5 9.3 50 5.7 ENE 39 44 21 24 1021.6 - 0.0
25/10:30am 19.7 12.0 8.7 49 5.7 ENE 39 46 21 25 1021.8 - 0.0
25/10:00am 19.6 11.6 8.9 50 5.6 ENE 41 46 22 25 1021.9 - 0.0
25/09:30am 19.7 12.4 8.7 49 5.7 E 37 43 20 23 1021.9 - 0.0
25/09:00am 19.5 13.2 9.1 51 5.4 E 32 37 17 20 1022.1 1022.1 0.0
25/08:30am 19.4 12.7 8.1 48 5.8 E 33 43 18 23 1021.7 - 0.0
25/08:00am 19.1 13.1 8.7 51 5.4 E 30 35 16 19 1021.3 - 0.0
25/07:30am 19.2 13.7 9.1 52 5.3 E 28 33 15 18 1020.8 - 0.0
25/07:00am 19.0 13.1 8.9 52 5.3 E 30 33 16 18 1020.1 - 0.0
25/06:30am 19.1 14.6 9.9 55 4.9 E 24 30 13 16 1019.8 - 0.0
25/06:00am 19.1 13.8 8.4 50 5.5 E 26 28 14 15 1019.4 1019.4 0.0
25/05:30am 18.7 14.6 10.0 57 4.6 ESE 22 26 12 14 1019.1 - 0.0
25/05:00am 18.4 16.3 13.5 73 2.8 ESE 17 20 9 11 1018.7 - 0.0
25/04:30am 18.2 16.7 14.1 77 2.3 ESE 15 17 8 9 1018.3 - 0.0
25/04:00am 18.8 16.6 13.4 71 3.1 ESE 17 19 9 10 1018.0 - 0.0
25/03:30am 18.8 15.7 11.6 63 4.0 ESE 19 20 10 11 1017.9 - 0.0
25/03:00am 18.4 16.1 11.9 66 3.6 E 15 15 8 8 1018.0 1018.0 0.0
25/02:30am 15.0 13.7 9.8 71 2.7 NE 7 13 4 7 1018.1 - 0.0
25/02:00am 14.4 12.6 9.4 72 2.6 NE 9 13 5 7 1018.3 - 0.0
25/01:30am 15.0 12.9 8.3 64 3.4 E 9 9 5 5 1018.5 - 0.0
25/01:00am 15.5 13.5 7.3 58 4.1 ENE 7 9 4 5 1018.7 - 0.0
25/12:30am 14.8 12.7 6.6 58 4.0 NNE 7 9 4 5 1019.1 - 0.0
25/12:00am 14.2 11.5 5.8 57 4.0 N 9 9 5 5 1019.3 1019.3 0.0
 
Date/Time
WST
Temp
°C
App
Temp
°C
Dew
Point
Rel
Hum
%
Delta-T
°C
Wind Press
QNH
hPa
Press
MSL
hPa
Rain
since 9 am
mm
Dir
 
Spd
km/h
Gust
km/h
Spd
kts
Gust
kts
24/11:30pm 14.2 11.9 5.6 56 4.1 N 7 9 4 5 1019.4 - 0.0
24/11:00pm 14.9 12.8 6.5 57 4.1 N 7 7 4 4 1019.6 - 0.0
24/10:30pm 14.8 12.4 6.9 59 3.9 N 9 9 5 5 1019.6 - 0.0
24/10:00pm 14.6 12.5 5.9 56 4.2 N 6 7 3 4 1019.7 - 0.0
24/09:30pm 15.9 13.9 6.9 55 4.4 N 7 9 4 5 1019.5 - 0.0
24/09:00pm 15.2 12.7 6.5 56 4.2 N 9 11 5 6 1019.4 1019.4 0.0
24/08:30pm 15.2 12.3 6.5 56 4.2 N 11 13 6 7 1019.2 - 0.0
24/08:00pm 15.7 12.8 6.4 54 4.5 NW 11 13 6 7 1019.0 - 0.0
24/07:30pm 16.8 13.7 5.4 47 5.5 N 11 11 6 6 1018.8 - 0.0
24/07:00pm 16.4 13.7 5.7 49 5.2 NW 9 13 5 7 1018.5 - 0.0
24/06:30pm 18.0 16.0 10.1 60 4.2 NNE 11 13 6 7 1018.2 - 0.0
24/06:00pm 19.5 16.9 10.8 57 4.7 NNE 15 17 8 9 1018.0 1018.0 0.0
24/05:30pm 20.6 17.3 9.5 49 5.9 NE 17 19 9 10 1017.9 - 0.0
24/05:00pm 21.2 17.9 9.4 47 6.3 NE 17 20 9 11 1018.0 - 0.0
24/04:30pm 22.3 19.0 9.5 44 6.9 NE 17 20 9 11 1017.9 - 0.0
24/04:00pm 22.4 18.0 7.4 38 7.8 NE 20 24 11 13 1017.7 - 0.0
24/03:30pm 21.9 17.1 7.3 39 7.5 NE 22 28 12 15 1017.6 - 0.0
24/03:00pm 21.8 16.7 7.6 40 7.3 NE 24 30 13 16 1017.9 1017.9 0.0
24/02:30pm 22.0 17.0 8.2 41 7.2 NE 24 28 13 15 1018.0 - 0.0
24/02:00pm 22.1 17.2 9.9 46 6.6 NE 26 30 14 16 1018.3 - 0.0
24/01:30pm 21.9 17.1 8.8 43 6.9 ENE 24 30 13 16 1018.8 - 0.0
24/01:00pm 21.7 16.1 8.9 44 6.8 ENE 28 32 15 17 1018.9 - 0.0
24/12:30pm 21.7 15.8 8.9 44 6.8 ENE 30 35 16 19 1019.3 - 0.0
24/12:00pm 21.6 17.0 9.8 47 6.3 E 24 28 13 15 1019.6 1019.6 0.0
24/11:30am 21.2 16.5 9.4 47 6.3 E 24 28 13 15 1020.0 - 0.0
24/11:00am 20.7 15.6 9.3 48 6.1 E 26 28 14 15 1020.4 - 0.0
24/10:30am 20.1 14.7 9.4 50 5.7 E 28 32 15 17 1020.5 - 0.0
24/10:00am 19.5 13.7 9.4 52 5.3 ESE 30 35 16 19 1020.5 - 0.0
24/09:30am 19.0 13.0 8.6 51 5.4 ESE 30 33 16 18 1020.3 - 0.0
24/09:00am 18.7 12.1 8.7 52 5.2 ESE 33 39 18 21 1020.3 1020.3 0.0
24/08:30am 18.5 11.4 7.9 50 5.4 ESE 35 41 19 22 1020.0 - 0.0
24/08:00am 18.2 10.6 7.6 50 5.4 SE 37 43 20 23 1019.7 - 0.0
24/07:30am 17.9 10.8 8.2 53 5.0 SE 35 41 19 22 1019.2 - 0.0
24/07:00am 17.6 10.4 9.0 57 4.5 SE 37 43 20 23 1018.8 - 0.0
24/06:30am 17.5 10.6 8.9 57 4.5 SE 35 41 19 22 1018.7 - 0.0
24/06:00am 17.6 10.9 9.5 59 4.2 SSE 35 41 19 22 1018.4 1018.4 0.0
24/05:30am 17.7 10.6 9.6 59 4.3 SSE 37 43 20 23 1018.2 - 0.0
24/05:00am 17.6 9.9 8.7 56 4.6 SSE 39 43 21 23 1018.1 - 0.0
24/04:30am 17.6 9.8 8.2 54 4.8 SSE 39 44 21 24 1017.7 - 0.0
24/04:00am 17.8 10.5 8.6 55 4.7 SSE 37 44 20 24 1017.7 - 0.0
24/03:30am 18.1 10.5 9.2 56 4.7 SSE 39 46 21 25 1018.0 - 0.0
24/03:00am 18.1 11.3 9.2 56 4.6 SSE 35 43 19 23 1018.0 1018.0 0.0
24/02:30am 18.2 10.9 8.7 54 4.9 SSE 37 44 20 24 1018.0 - 0.0
24/02:00am 18.6 11.2 9.9 57 4.6 SSE 39 44 21 24 1018.2 - 0.0
24/01:30am 18.8 12.1 9.6 55 4.9 SSE 35 41 19 22 1018.1 - 0.0
24/01:00am 18.9 12.4 10.2 57 4.7 SSE 35 41 19 22 1018.3 - 0.0
24/12:30am 19.0 12.5 10.3 57 4.7 S 35 43 19 23 1018.4 - 0.0
24/12:00am 19.3 11.9 9.8 54 5.0 S 39 43 21 23 1018.4 1018.4 0.0
 
Date/Time
WST
Temp
°C
App
Temp
°C
Dew
Point
Rel
Hum
%
Delta-T
°C
Wind Press
QNH
hPa
Press
MSL
hPa
Rain
since 9 am
mm
Dir
 
Spd
km/h
Gust
km/h
Spd
kts
Gust
kts
23/11:30pm 19.6 13.7 11.1 58 4.6 S 33 41 18 22 1018.4 - 0.0
23/11:00pm 19.7 14.0 11.2 58 4.7 S 32 39 17 21 1018.4 - 0.0
23/10:30pm 19.8 14.8 12.3 62 4.2 S 30 35 16 19 1018.5 - 0.0
23/10:00pm 19.9 15.8 12.7 63 4.1 S 26 28 14 15 1018.4 - 0.0
23/09:30pm 20.0 15.8 12.5 62 4.2 S 26 30 14 16 1018.2 - 0.0
23/09:00pm 20.2 15.6 12.2 60 4.5 S 28 32 15 17 1018.1 1018.1 0.0
23/08:30pm 20.2 16.3 12.2 60 4.5 S 24 28 13 15 1018.0 - 0.0
23/08:00pm 19.7 16.9 12.7 64 3.9 SSW 19 24 10 13 1017.9 - 0.0
23/07:30pm 17.8 13.9 9.4 58 4.4 W 20 24 11 13 1017.7 - 0.0
23/07:00pm 16.8 12.3 6.9 52 4.9 W 20 22 11 12 1017.5 - 0.0
23/06:30pm 17.6 13.2 6.5 48 5.5 WSW 19 20 10 11 1017.3 - 0.0
23/06:00pm 19.3 15.1 5.7 41 6.7 WSW 17 19 9 10 1017.2 1017.2 0.0
23/05:30pm 21.3 17.2 2.1 28 8.9 WSW 13 15 7 8 1017.1 - 0.0
23/05:00pm 21.8 17.4 4.8 33 8.4 SW 17 19 9 10 1017.1 - 0.0
23/04:30pm 22.0 17.3 3.2 29 9.0 SW 17 20 9 11 1017.0 - 0.0
23/04:00pm 21.6 17.5 7.8 41 7.2 SSW 19 22 10 12 1017.1 - 0.0
23/03:30pm 21.8 18.7 10.3 48 6.3 S 17 20 9 11 1017.2 - 0.0
23/03:00pm 21.8 18.1 9.3 45 6.7 S 19 22 10 12 1017.2 1017.2 0.0
23/02:30pm 21.8 17.8 8.3 42 7.1 S 19 22 10 12 1017.5 - 0.0
23/02:00pm 21.6 17.5 7.8 41 7.2 S 19 22 10 12 1017.6 - 0.0
23/01:30pm 21.7 17.8 9.6 46 6.5 S 20 24 11 13 1018.0 - 0.0
23/01:00pm 21.9 17.4 8.4 42 7.1 S 22 26 12 14 1018.5 - 0.0
23/12:30pm 21.0 16.5 9.9 49 6.0 S 24 28 13 15 1018.9 - 0.0
23/12:00pm 20.9 16.5 10.4 51 5.7 S 24 28 13 15 1019.6 1019.6 0.0
23/11:30am 20.1 15.4 9.4 50 5.7 SSE 24 28 13 15 1020.0 - 0.0
23/11:00am 20.0 15.1 9.9 52 5.4 SSE 26 30 14 16 1020.5 - 0.0
23/10:30am 19.8 15.1 10.5 55 5.0 SSE 26 30 14 16 1020.8 - 0.0
23/10:00am 19.4 14.8 10.9 58 4.6 SSE 26 30 14 16 1020.8 - 0.0
23/09:30am 18.7 13.9 10.3 58 4.5 S 26 30 14 16 1020.7 - 0.0
23/09:00am 18.5 13.0 10.6 60 4.2 S 30 35 16 19 1020.5 1020.5 0.0
23/08:30am 18.1 12.2 10.5 61 4.1 S 32 37 17 20 1020.3 - 0.0
23/08:00am 17.9 11.9 10.0 60 4.2 S 32 35 17 19 1020.1 - 0.0
23/07:30am 17.9 11.8 10.5 62 4.0 S 33 41 18 22 1019.7 - 0.0
23/07:00am 17.7 11.5 10.1 61 4.0 S 33 39 18 21 1019.3 - 0.0
23/06:30am 18.4 11.6 10.5 60 4.2 SSE 37 43 20 23 1018.8 - 0.0
23/06:00am 18.7 12.0 9.5 55 4.8 SSE 35 43 19 23 1018.5 1018.5 0.0
23/05:30am 18.8 11.6 9.0 53 5.1 SSE 37 44 20 24 1018.2 - 0.0
23/05:00am 18.7 12.0 9.5 55 4.9 SSE 35 43 19 23 1018.1 - 0.0
23/04:30am 18.8 12.1 9.8 56 4.8 SSE 35 43 19 23 1018.1 - 0.0
23/04:00am 18.8 11.8 9.8 56 4.8 S 37 44 20 24 1018.3 - 0.0
23/03:30am 19.1 11.8 8.7 51 5.4 S 37 43 20 23 1018.3 - 0.0
23/03:00am 19.1 12.7 9.3 53 5.1 SSE 33 41 18 22 1018.4 1018.4 0.0
23/02:30am 19.2 12.1 9.7 54 5.0 SSE 37 44 20 24 1018.5 - 0.0
23/02:00am 19.3 12.6 9.8 54 5.1 SSE 35 44 19 24 1018.5 - 0.0
23/01:30am 19.2 12.4 10.5 57 4.7 SSE 37 44 20 24 1018.5 - 0.0
23/01:00am 19.4 12.4 10.1 55 5.0 SSE 37 44 20 24 1018.5 - 0.0
23/12:30am 19.5 12.3 10.5 56 4.9 SSE 39 46 21 25 1018.7 - 0.0
23/12:00am 19.7 12.3 9.9 53 5.2 SSE 39 46 21 25 1018.6 1018.6 0.0
 
Date/Time
WST
Temp
°C
App
Temp
°C
Dew
Point
Rel
Hum
%
Delta-T
°C
Wind Press
QNH
hPa
Press
MSL
hPa
Rain
since 9 am
mm
Dir
 
Spd
km/h
Gust
km/h
Spd
kts
Gust
kts
22/11:30pm 19.7 12.6 10.9 57 4.8 S 39 46 21 25 1018.5 - 0.0

Other Formats:

Comma delimited format used in spreadsheet applications
http://www.bom.gov.au/fwo/IDW60801/IDW60801.95304.axf

JavaScript Object Notation format (JSON) in row-major order
http://www.bom.gov.au/fwo/IDW60801/IDW60801.95304.json